Time;durP1;ratioP1;P1;durP2;ratioP2;P2;SDS_P1;SDS_P2;PMS_P1;PMS_P2;Temp;Humidity;BMP_temperature;BMP_pressure;BME280_temperature;BME280_humidity;BME280_pressure;Samples;Min_cycle;Max_cycle;Signal;HPM_P1;HPM_P2
2024/01/02 00:03:56;;;;;;;4.38;0.70;;;;;;;9.81;93.48;99303.84;8338726;28;20072;-55
2024/01/02 00:07:57;;;;;;;4.03;0.70;;;;;;;9.85;93.46;99291.72;8335193;28;20100;-56
2024/01/02 00:11:57;;;;;;;2.15;0.40;;;;;;;9.91;93.63;99285.66;8340943;28;20040;-57
2024/01/02 00:15:58;;;;;;;7.47;1.15;;;;;;;9.64;96.68;99264.38;8370955;28;20038;-56
2024/01/02 00:19:58;;;;;;;1.40;0.30;;;;;;;9.52;99.03;99257.59;8339385;28;20037;-56
2024/01/02 00:23:59;;;;;;;2.53;0.60;;;;;;;9.45;100.00;99246.59;8340679;28;20049;-55
2024/01/02 00:28:01;;;;;;;3.28;0.65;;;;;;;9.48;100.00;99240.03;8345024;28;20571;-55
2024/01/02 00:32:02;;;;;;;1.27;0.30;;;;;;;9.45;100.00;99235.81;8345597;28;20207;-57
2024/01/02 00:36:03;;;;;;;1.30;0.50;;;;;;;9.42;100.00;99229.91;8334184;28;20034;-57
2024/01/02 00:40:05;;;;;;;1.58;0.52;;;;;;;9.46;100.00;99223.19;8327499;28;20041;-57
2024/01/02 00:44:05;;;;;;;3.38;0.40;;;;;;;9.46;100.00;99204.31;8325281;28;20042;-57
2024/01/02 00:48:06;;;;;;;0.73;0.30;;;;;;;9.46;100.00;99182.72;8327511;28;20044;-57
2024/01/02 00:52:07;;;;;;;1.42;0.30;;;;;;;9.57;100.00;99195.88;8292432;28;20191;-58
2024/01/02 00:56:07;;;;;;;0.65;0.30;;;;;;;9.63;100.00;99173.63;8276983;28;20052;-57
2024/01/02 01:00:09;;;;;;;0.93;0.30;;;;;;;9.64;100.00;99159.13;8282413;28;20090;-58
2024/01/02 01:04:12;;;;;;;0.95;0.30;;;;;;;9.67;100.00;99143.44;8250146;28;20044;-57
2024/01/02 01:08:13;;;;;;;2.03;0.30;;;;;;;9.64;100.00;99122.19;8244201;28;20288;-57
2024/01/02 01:12:13;;;;;;;0.82;0.20;;;;;;;9.54;100.00;99099.94;8245079;28;20111;-57
2024/01/02 01:16:15;;;;;;;2.00;0.30;;;;;;;9.59;100.00;99081.41;8257728;28;20813;-58
2024/01/02 01:20:15;;;;;;;0.35;0.10;;;;;;;9.56;100.00;99062.00;8243966;28;20289;-58
2024/01/02 01:24:16;;;;;;;0.93;0.25;;;;;;;9.50;100.00;99043.81;8244974;28;20099;-58
2024/01/02 01:28:16;;;;;;;1.75;0.30;;;;;;;9.50;100.00;99027.63;8264021;28;20037;-57
2024/01/02 01:32:17;;;;;;;1.08;0.30;;;;;;;9.45;100.00;99013.78;8237730;28;20570;-57
2024/01/02 01:36:18;;;;;;;1.92;0.38;;;;;;;9.39;100.00;98998.28;8244810;28;20837;-55
2024/01/02 01:40:18;;;;;;;0.63;0.30;;;;;;;9.34;100.00;99000.66;8243301;28;20038;-56
2024/01/02 01:44:19;;;;;;;1.23;0.32;;;;;;;9.28;100.00;98993.25;8264490;28;20045;-57
2024/01/02 01:48:21;;;;;;;3.13;0.25;;;;;;;9.28;100.00;98990.56;8279777;28;20038;-57
2024/01/02 01:52:21;;;;;;;0.52;0.20;;;;;;;9.27;100.00;98983.50;8297167;28;20041;-57
2024/01/02 01:56:22;;;;;;;0.25;0.20;;;;;;;9.20;100.00;98983.31;8294497;28;20041;-56
2024/01/02 02:00:23;;;;;;;0.35;0.20;;;;;;;9.21;100.00;98973.38;8285363;28;20676;-57
2024/01/02 02:04:27;;;;;;;0.20;0.20;;;;;;;9.13;100.00;98965.28;8277041;28;20531;-57
2024/01/02 02:08:27;;;;;;;0.45;0.40;;;;;;;9.12;100.00;98958.22;8317662;28;20102;-57
2024/01/02 02:12:28;;;;;;;0.10;0.10;;;;;;;9.08;100.00;98935.28;8286418;28;20041;-58
2024/01/02 02:16:29;;;;;;;1.50;0.20;;;;;;;9.03;100.00;98933.09;8285903;28;20037;-55
2024/01/02 02:20:29;;;;;;;0.25;0.17;;;;;;;8.97;100.00;98892.53;8285589;28;20119;-56
2024/01/02 02:24:30;;;;;;;0.38;0.22;;;;;;;8.96;100.00;98872.81;8331233;28;20045;-55
2024/01/02 02:28:31;;;;;;;0.40;0.20;;;;;;;8.88;100.00;98869.31;8341382;28;20025;-55
2024/01/02 02:32:31;;;;;;;2.00;0.20;;;;;;;8.80;100.00;98845.91;8324816;28;20103;-58
2024/01/02 02:36:31;;;;;;;0.38;0.10;;;;;;;8.83;100.00;98828.53;8322952;28;20049;-59
2024/01/02 02:40:32;;;;;;;1.40;0.10;;;;;;;8.74;100.00;98805.31;8337024;28;20036;-59
2024/01/02 02:44:33;;;;;;;0.00;0.00;;;;;;;8.64;100.00;98796.59;8339268;28;20128;-57
2024/01/02 02:48:34;;;;;;;0.10;0.10;;;;;;;8.65;100.00;98790.19;8283264;28;20308;-57
2024/01/02 02:52:34;;;;;;;0.10;0.10;;;;;;;8.71;100.00;98784.97;8279781;28;20268;-57
2024/01/02 02:56:35;;;;;;;0.17;0.15;;;;;;;8.76;100.00;98776.38;8279687;28;20068;-57
2024/01/02 03:00:35;;;;;;;0.20;0.10;;;;;;;8.68;100.00;98760.22;8268393;28;20129;-58
2024/01/02 03:04:36;;;;;;;0.10;0.10;;;;;;;8.66;100.00;98759.56;8268413;28;20268;-58
2024/01/02 03:08:36;;;;;;;0.88;0.10;;;;;;;8.66;100.00;98714.59;8268197;28;20037;-57
2024/01/02 03:12:36;;;;;;;0.10;0.10;;;;;;;8.74;100.00;98700.25;8271345;28;20388;-56
2024/01/02 03:16:38;;;;;;;0.10;0.10;;;;;;;8.84;100.00;98703.63;8323565;28;20041;-57
2024/01/02 03:20:38;;;;;;;3.90;0.38;;;;;;;8.86;100.00;98671.94;8321852;28;20617;-57
2024/01/02 03:24:39;;;;;;;0.17;0.17;;;;;;;8.98;100.00;98651.66;8307097;28;20517;-58
2024/01/02 03:28:39;;;;;;;0.68;0.10;;;;;;;8.90;100.00;98627.44;8280987;28;20593;-58
2024/01/02 03:32:40;;;;;;;1.80;0.10;;;;;;;8.98;100.00;98622.03;8285461;28;20111;-58
2024/01/02 03:36:40;;;;;;;0.35;0.10;;;;;;;9.02;100.00;98604.47;8284863;28;20802;-58
2024/01/02 03:40:41;;;;;;;0.15;0.10;;;;;;;9.04;100.00;98588.97;8285305;28;20064;-59
2024/01/02 03:44:41;;;;;;;0.38;0.10;;;;;;;9.12;100.00;98576.28;8283639;28;20033;-58
2024/01/02 03:48:42;;;;;;;1.15;0.10;;;;;;;9.16;100.00;98544.44;8284016;28;20156;-59
2024/01/02 03:52:43;;;;;;;0.10;0.10;;;;;;;9.31;100.00;98532.69;8298219;28;20440;-57
2024/01/02 03:56:44;;;;;;;0.63;0.10;;;;;;;9.48;100.00;98503.69;8347697;28;20055;-57
2024/01/02 04:00:44;;;;;;;0.10;0.10;;;;;;;9.58;100.00;98517.78;8366540;28;20142;-57
2024/01/02 04:04:46;;;;;;;0.20;0.10;;;;;;;9.64;100.00;98493.59;8339389;28;20132;-58
2024/01/02 04:08:46;;;;;;;0.38;0.22;;;;;;;9.72;100.00;98465.69;8329498;28;20033;-57
2024/01/02 04:12:47;;;;;;;0.05;0.00;;;;;;;9.80;100.00;98500.69;8322216;28;20037;-58
2024/01/02 04:16:47;;;;;;;0.10;0.10;;;;;;;9.90;100.00;98463.47;8270381;28;20045;-59
2024/01/02 04:20:48;;;;;;;0.10;0.10;;;;;;;9.97;100.00;98492.22;8274176;28;20064;-58
2024/01/02 04:24:48;;;;;;;0.00;0.00;;;;;;;10.09;100.00;98449.44;8290038;28;20041;-59
2024/01/02 04:28:49;;;;;;;0.05;0.05;;;;;;;10.13;100.00;98463.41;8289505;28;20053;-60
2024/01/02 04:32:49;;;;;;;0.10;0.00;;;;;;;10.16;100.00;98436.03;8283755;28;20056;-59
2024/01/02 04:36:50;;;;;;;0.00;0.00;;;;;;;10.19;100.00;98436.50;8320882;28;20044;-59
2024/01/02 04:40:51;;;;;;;0.00;0.00;;;;;;;10.23;100.00;98443.19;8291871;28;20510;-60
2024/01/02 04:44:51;;;;;;;0.00;0.00;;;;;;;10.18;100.00;98424.00;8350733;28;20472;-61
2024/01/02 04:48:51;;;;;;;0.25;0.00;;;;;;;10.34;100.00;98428.34;8344574;28;20553;-61
2024/01/02 04:52:52;;;;;;;0.10;0.00;;;;;;;10.55;100.00;98414.88;8320959;28;20034;-59
2024/01/02 04:56:53;;;;;;;0.00;0.00;;;;;;;10.72;100.00;98433.34;8291127;28;20033;-59
2024/01/02 05:00:53;;;;;;;0.00;0.00;;;;;;;10.78;100.00;98410.97;8291951;28;20684;-57
2024/01/02 05:04:54;;;;;;;0.30;0.10;;;;;;;10.88;100.00;98422.28;8276298;28;20425;-58
2024/01/02 05:08:54;;;;;;;0.03;0.00;;;;;;;11.00;100.00;98426.13;8314961;28;20505;-57
2024/01/02 05:12:55;;;;;;;0.00;0.00;;;;;;;11.03;100.00;98417.63;8288719;28;20320;-57
2024/01/02 05:16:55;;;;;;;0.38;0.08;;;;;;;11.20;100.00;98391.97;8293904;28;20122;-56
2024/01/02 05:20:55;;;;;;;0.00;0.00;;;;;;;11.19;100.00;98393.00;8288334;28;20347;-58
2024/01/02 05:24:56;;;;;;;0.00;0.00;;;;;;;11.30;100.00;98400.59;8291089;28;20033;-59
2024/01/02 05:28:56;;;;;;;0.10;0.10;;;;;;;11.31;100.00;98412.22;8285217;28;20044;-59
2024/01/02 05:32:58;;;;;;;0.08;0.08;;;;;;;11.36;100.00;98402.53;8292519;28;20301;-56
2024/01/02 05:36:58;;;;;;;0.00;0.00;;;;;;;11.50;100.00;98415.09;8299163;28;20048;-58
2024/01/02 05:40:59;;;;;;;0.00;0.00;;;;;;;11.72;100.00;98411.31;8348600;28;20037;-56
2024/01/02 05:44:59;;;;;;;0.10;0.10;;;;;;;12.01;100.00;98401.28;8346343;28;20042;-57
2024/01/02 05:49:00;;;;;;;0.10;0.10;;;;;;;12.29;100.00;98412.84;8317950;28;20044;-58
2024/01/02 05:53:00;;;;;;;0.10;0.00;;;;;;;12.44;100.00;98389.16;8296418;28;20037;-58
2024/01/02 05:57:01;;;;;;;0.00;0.00;;;;;;;12.59;100.00;98381.69;8290699;28;20273;-58
2024/01/02 06:01:02;;;;;;;0.10;0.00;;;;;;;12.61;100.00;98409.41;8278742;28;20177;-59
2024/01/02 06:05:03;;;;;;;0.10;0.00;;;;;;;12.68;100.00;98399.38;8277856;28;20052;-59
2024/01/02 06:09:05;;;;;;;0.00;0.00;;;;;;;12.80;100.00;98395.03;8282960;28;20287;-59
2024/01/02 06:13:07;;;;;;;0.00;0.00;;;;;;;12.80;100.00;98406.72;8280777;28;20377;-59
2024/01/02 06:17:08;;;;;;;1.08;0.00;;;;;;;12.79;100.00;98415.06;8298428;28;20551;-57
2024/01/02 06:21:08;;;;;;;0.00;0.00;;;;;;;12.79;100.00;98420.50;8341148;28;20419;-58
2024/01/02 06:25:09;;;;;;;0.00;0.00;;;;;;;12.91;100.00;98421.56;8339541;28;20495;-59
2024/01/02 06:29:09;;;;;;;0.00;0.00;;;;;;;12.93;100.00;98411.34;8341257;28;20060;-58
2024/01/02 06:33:10;;;;;;;0.28;0.10;;;;;;;13.01;100.00;98438.28;8350084;28;20067;-57
2024/01/02 06:37:10;;;;;;;0.10;0.10;;;;;;;13.07;100.00;98424.75;8338948;28;20467;-57
2024/01/02 06:41:11;;;;;;;0.00;0.00;;;;;;;13.11;100.00;98419.72;8334274;28;20458;-57
2024/01/02 06:45:11;;;;;;;0.10;0.10;;;;;;;13.15;100.00;98427.22;8291417;28;20144;-59
2024/01/02 06:49:12;;;;;;;0.00;0.00;;;;;;;13.21;100.00;98420.16;8285665;28;20042;-59
2024/01/02 06:53:12;;;;;;;0.13;0.00;;;;;;;13.24;100.00;98425.16;8302090;28;20056;-59
2024/01/02 06:57:13;;;;;;;0.95;0.00;;;;;;;13.38;100.00;98433.09;8284668;28;21054;-59
2024/01/02 07:01:14;;;;;;;0.00;0.00;;;;;;;13.40;100.00;98441.88;8289400;28;20377;-57
2024/01/02 07:05:15;;;;;;;0.00;0.00;;;;;;;13.32;100.00;98446.66;8296465;28;20791;-59
2024/01/02 07:09:17;;;;;;;0.00;0.00;;;;;;;13.33;100.00;98434.78;8285074;28;20056;-59
2024/01/02 07:13:17;;;;;;;0.08;0.03;;;;;;;13.38;100.00;98426.81;8284757;28;20534;-59
2024/01/02 07:17:19;;;;;;;0.05;0.00;;;;;;;13.34;100.00;98428.28;8264980;28;20393;-59
2024/01/02 07:21:20;;;;;;;0.20;0.05;;;;;;;13.35;100.00;98430.81;8228585;28;20240;-59
2024/01/02 07:25:21;;;;;;;0.00;0.00;;;;;;;13.35;100.00;98438.09;8252148;28;20118;-59
2024/01/02 07:29:21;;;;;;;0.00;0.00;;;;;;;13.41;100.00;98426.41;8239917;28;20851;-59
2024/01/02 07:33:23;;;;;;;0.10;0.00;;;;;;;13.39;100.00;98450.22;8277053;28;20419;-59
2024/01/02 07:37:23;;;;;;;0.00;0.00;;;;;;;13.35;100.00;98447.09;8326228;28;20037;-57
2024/01/02 07:41:24;;;;;;;0.00;0.00;;;;;;;13.47;100.00;98464.41;8337678;28;20033;-58
2024/01/02 07:45:24;;;;;;;0.00;0.00;;;;;;;13.47;100.00;98469.00;8337652;28;20040;-57
2024/01/02 07:49:25;;;;;;;0.00;0.00;;;;;;;13.59;100.00;98472.75;8339615;28;20087;-57
2024/01/02 07:53:26;;;;;;;0.10;0.00;;;;;;;13.52;100.00;98482.78;8340038;28;20411;-58
2024/01/02 07:57:26;;;;;;;0.00;0.00;;;;;;;13.57;100.00;98485.69;8338812;28;20056;-59
2024/01/02 08:01:27;;;;;;;0.00;0.00;;;;;;;13.58;100.00;98498.25;8332369;28;20061;-59
2024/01/02 08:05:28;;;;;;;0.00;0.00;;;;;;;13.55;100.00;98509.53;8344866;28;20041;-58
2024/01/02 08:09:28;;;;;;;0.00;0.00;;;;;;;13.54;100.00;98491.53;8339328;28;20403;-58
2024/01/02 08:13:29;;;;;;;0.00;0.00;;;;;;;13.66;100.00;98514.31;8342944;28;20068;-58
2024/01/02 08:17:29;;;;;;;0.80;0.05;;;;;;;13.62;100.00;98516.63;8339424;28;20037;-59
2024/01/02 08:21:29;;;;;;;0.20;0.00;;;;;;;13.59;100.00;98521.63;8342624;28;20040;-59
2024/01/02 08:25:30;;;;;;;0.10;0.03;;;;;;;13.50;100.00;98517.44;8345514;28;20496;-58
2024/01/02 08:29:30;;;;;;;0.00;0.00;;;;;;;13.62;100.00;98510.34;8339640;28;20106;-58
2024/01/02 08:33:31;;;;;;;0.00;0.00;;;;;;;13.62;100.00;98521.22;8340360;28;20037;-58
2024/01/02 08:37:31;;;;;;;0.00;0.00;;;;;;;13.68;100.00;98509.50;8332380;28;20037;-59
2024/01/02 08:41:32;;;;;;;0.00;0.00;;;;;;;13.71;100.00;98512.66;8336901;28;20434;-58
2024/01/02 08:45:32;;;;;;;0.05;0.00;;;;;;;13.72;99.77;98510.75;8342092;28;20115;-57
2024/01/02 08:49:33;;;;;;;0.10;0.10;;;;;;;13.71;99.44;98500.94;8349094;28;20037;-57
2024/01/02 08:53:33;;;;;;;0.00;0.00;;;;;;;13.70;99.59;98502.00;8344028;28;20065;-60
2024/01/02 08:57:34;;;;;;;0.10;0.10;;;;;;;13.79;98.30;98511.63;8341442;28;20082;-59
2024/01/02 09:01:34;;;;;;;0.00;0.00;;;;;;;13.78;98.25;98515.34;8339361;28;20038;-59
2024/01/02 09:05:35;;;;;;;0.00;0.00;;;;;;;13.63;99.41;98529.16;8341791;28;20451;-60
2024/01/02 09:09:35;;;;;;;0.00;0.00;;;;;;;13.63;99.22;98529.16;8343892;28;20049;-59
2024/01/02 09:13:36;;;;;;;0.10;0.03;;;;;;;13.56;99.30;98527.47;8329610;28;20052;-57
2024/01/02 09:17:36;;;;;;;0.00;0.00;;;;;;;13.60;98.76;98528.72;8339239;28;20103;-59
2024/01/02 09:21:37;;;;;;;0.05;0.05;;;;;;;13.69;97.29;98522.03;8337156;28;20038;-59
2024/01/02 09:25:40;;;;;;;0.00;0.00;;;;;;;13.79;96.00;98519.75;8347479;28;20504;-59
2024/01/02 09:29:40;;;;;;;0.10;0.00;;;;;;;13.77;96.03;98525.41;8337994;28;20449;-59
2024/01/02 09:33:43;;;;;;;0.00;0.00;;;;;;;13.73;95.83;98526.03;8330831;28;20120;-59
2024/01/02 09:37:44;;;;;;;0.00;0.00;;;;;;;13.77;95.08;98535.41;8341603;28;20223;-59
2024/01/02 09:42:17;;;;;;;0.05;0.05;;;;;;;13.76;95.33;98531.03;8341203;28;20036;-59
2024/01/02 09:46:41;;;;;;;0.60;0.13;;;;;;;13.63;96.49;98526.44;8320808;28;20064;-59
2024/01/02 09:51:02;;;;;;;0.10;0.00;;;;;;;13.74;95.09;98514.09;8330343;28;20136;-60
2024/01/02 09:59:55;;;;;;;0.00;0.00;;;;;;;13.88;93.27;98504.91;8408100;27;20391;-59
2024/01/02 10:04:13;;;;;;;0.20;0.10;;;;;;;13.87;93.32;98497.78;8375612;28;20036;-57
2024/01/02 10:13:03;;;;;;;0.08;0.08;;;;;;;13.81;94.16;98495.91;8404246;27;20405;-60
2024/01/02 10:17:32;;;;;;;0.10;0.10;;;;;;;13.71;94.82;98471.06;8394285;27;20039;-56
2024/01/02 10:22:04;;;;;;;0.57;0.13;;;;;;;13.66;95.34;98489.88;8394372;27;20044;-56
2024/01/02 10:26:08;;;;;;;0.00;0.00;;;;;;;13.58;95.92;98482.78;8385676;28;20058;-57
2024/01/02 10:30:12;;;;;;;0.10;0.10;;;;;;;13.46;96.55;98472.75;8389677;28;20036;-57
2024/01/02 10:34:36;;;;;;;0.00;0.00;;;;;;;13.38;98.14;98464.81;8385214;28;20411;-56
2024/01/02 10:39:07;;;;;;;0.13;0.10;;;;;;;13.21;100.00;98474.44;8386407;28;20326;-57
2024/01/02 10:43:35;;;;;;;0.88;0.10;;;;;;;13.06;100.00;98481.91;8384477;28;20074;-56
2024/01/02 10:48:05;;;;;;;0.20;0.10;;;;;;;12.93;100.00;98481.84;8389546;27;20046;-56
2024/01/02 10:52:35;;;;;;;0.20;0.10;;;;;;;12.80;100.00;98481.81;8380532;28;20064;-57
2024/01/02 10:57:05;;;;;;;0.22;0.20;;;;;;;12.70;100.00;98486.78;8375337;28;20393;-56
2024/01/02 11:13:20;;;;;;;0.10;0.10;;;;;;;12.26;100.00;98457.41;8345813;27;20417;-56
2024/01/02 11:17:21;;;;;;;0.45;0.10;;;;;;;12.23;100.00;98448.88;8341013;28;20413;-57
2024/01/02 11:24:27;;;;;;;0.38;0.10;;;;;;;12.02;100.00;98444.41;8370759;27;20463;-57
2024/01/02 11:28:29;;;;;;;0.30;0.10;;;;;;;11.97;100.00;98440.59;8403278;27;20113;-58
2024/01/02 11:32:46;;;;;;;0.03;0.00;;;;;;;11.95;100.00;98421.03;8404604;27;20091;-56
2024/01/02 11:37:26;;;;;;;0.10;0.10;;;;;;;11.93;100.00;98419.34;8397626;27;20039;-57
2024/01/02 11:41:44;;;;;;;0.10;0.00;;;;;;;11.90;100.00;98403.50;8393365;27;20040;-56
2024/01/02 11:45:51;;;;;;;0.10;0.10;;;;;;;11.79;100.00;98398.66;8393138;27;20065;-57
2024/01/02 11:49:59;;;;;;;0.20;0.00;;;;;;;11.74;100.00;98393.00;8399142;27;20442;-57
2024/01/02 11:54:14;;;;;;;1.00;0.60;;;;;;;11.71;100.00;98381.72;8402437;27;20684;-58
2024/01/02 11:58:26;;;;;;;15.63;5.57;;;;;;;11.67;100.00;98375.91;8406226;27;20201;-58
2024/01/02 12:07:01;;;;;;;1.70;0.60;;;;;;;11.45;100.00;98338.25;8378429;27;20378;-58
2024/01/02 12:11:05;;;;;;;3.78;1.40;;;;;;;11.40;100.00;98340.72;8369955;28;20075;-59
2024/01/02 12:15:39;;;;;;;0.45;0.32;;;;;;;11.39;100.00;98328.25;8361012;28;20120;-59
2024/01/02 12:19:40;;;;;;;0.47;0.30;;;;;;;11.37;100.00;98330.28;8359890;28;20033;-58
2024/01/02 12:23:41;;;;;;;0.80;0.60;;;;;;;11.34;100.00;98309.91;8373427;28;20041;-58
2024/01/02 12:27:46;;;;;;;0.47;0.20;;;;;;;11.32;100.00;98306.53;8377240;28;20132;-56
2024/01/02 12:31:51;;;;;;;0.43;0.40;;;;;;;11.32;100.00;98317.38;8376554;28;20066;-56
2024/01/02 12:36:05;;;;;;;0.30;0.20;;;;;;;11.26;100.00;98301.94;8376164;28;20515;-56
2024/01/02 12:40:10;;;;;;;0.25;0.13;;;;;;;11.26;100.00;98293.81;8375884;28;20055;-57
2024/01/02 12:44:12;;;;;;;0.68;0.30;;;;;;;11.30;100.00;98286.16;8376858;28;20041;-59
2024/01/02 12:48:17;;;;;;;0.30;0.30;;;;;;;11.27;100.00;98282.00;8372081;28;20079;-59
2024/01/02 12:52:19;;;;;;;0.30;0.30;;;;;;;11.24;100.00;98270.72;8373174;28;20046;-59
2024/01/02 12:56:24;;;;;;;8.05;4.80;;;;;;;11.26;100.00;98266.78;8376430;28;20124;-57
2024/01/02 13:00:26;;;;;;;0.30;0.30;;;;;;;11.26;100.00;98250.53;8362311;28;20064;-61
2024/01/02 13:04:26;;;;;;;0.13;0.13;;;;;;;11.27;100.00;98244.13;8376001;28;20032;-56
2024/01/02 13:08:29;;;;;;;0.35;0.30;;;;;;;11.28;100.00;98240.38;8375089;28;20131;-57
2024/01/02 13:12:30;;;;;;;0.50;0.20;;;;;;;11.24;100.00;98216.63;8375250;28;20126;-56
2024/01/02 13:16:31;;;;;;;0.50;0.20;;;;;;;11.26;100.00;98212.69;8355817;28;20045;-57
2024/01/02 13:20:32;;;;;;;0.65;0.40;;;;;;;11.29;100.00;98209.56;8342055;28;20120;-57
2024/01/02 13:24:48;;;;;;;0.95;0.40;;;;;;;11.28;100.00;98194.41;8351631;28;20124;-58
2024/01/02 13:28:50;;;;;;;0.40;0.30;;;;;;;11.31;100.00;98202.09;8352364;28;20040;-58
2024/01/02 13:32:51;;;;;;;0.88;0.40;;;;;;;11.32;100.00;98187.53;8349371;28;20296;-59
2024/01/02 13:36:55;;;;;;;0.30;0.30;;;;;;;11.34;100.00;98179.22;8347743;28;20048;-60
2024/01/02 13:41:04;;;;;;;0.98;0.55;;;;;;;11.39;100.00;98192.97;8338445;28;20036;-59
2024/01/02 13:45:04;;;;;;;0.40;0.40;;;;;;;11.43;100.00;98173.44;8339343;28;20048;-60
2024/01/02 13:49:05;;;;;;;0.20;0.20;;;;;;;11.44;100.00;98172.41;8350244;28;20052;-59
2024/01/02 13:53:07;;;;;;;0.10;0.10;;;;;;;11.43;100.00;98165.31;8351011;28;20813;-59
2024/01/02 13:57:08;;;;;;;0.22;0.10;;;;;;;11.44;100.00;98163.47;8351999;28;20037;-60
2024/01/02 14:01:09;;;;;;;0.40;0.30;;;;;;;11.44;100.00;98148.03;8343559;28;20033;-61
2024/01/02 14:05:10;;;;;;;0.30;0.10;;;;;;;11.40;100.00;98135.97;8347997;28;20120;-60
2024/01/02 14:09:16;;;;;;;0.10;0.10;;;;;;;11.41;100.00;98131.41;8348983;28;20506;-60
2024/01/02 14:13:33;;;;;;;1.25;0.15;;;;;;;11.40;100.00;98119.75;8338985;28;20039;-60
2024/01/02 14:17:35;;;;;;;0.30;0.22;;;;;;;11.37;100.00;98125.56;8333911;28;20041;-60
2024/01/02 14:21:41;;;;;;;1.65;0.20;;;;;;;11.39;100.00;98123.50;8331920;28;20242;-60
2024/01/02 14:30:17;;;;;;;0.28;0.20;;;;;;;11.50;100.00;98109.34;8420316;27;20765;-60
2024/01/02 14:34:41;;;;;;;0.10;0.10;;;;;;;11.50;100.00;98103.94;8408411;28;20040;-59
2024/01/02 14:39:11;;;;;;;0.20;0.20;;;;;;;11.58;100.00;98083.97;8393293;28;20036;-59
2024/01/02 14:43:52;;;;;;;0.50;0.30;;;;;;;11.60;100.00;98071.94;8396116;28;20033;-60
2024/01/02 14:48:10;;;;;;;1.25;0.80;;;;;;;11.61;100.00;98053.81;8393919;28;20238;-60
2024/01/02 14:52:42;;;;;;;0.90;0.60;;;;;;;11.66;100.00;98060.31;8393768;28;20040;-60
2024/01/02 14:57:12;;;;;;;0.20;0.20;;;;;;;11.64;100.00;98034.47;8408279;28;20140;-60
2024/01/02 15:01:26;;;;;;;0.68;0.60;;;;;;;11.59;100.00;98026.94;8392122;28;20041;-59
2024/01/02 15:05:49;;;;;;;1.42;0.60;;;;;;;11.58;100.00;98003.66;8396554;27;20406;-59
2024/01/02 15:10:17;;;;;;;1.75;1.10;;;;;;;11.61;100.00;98000.53;8390924;28;20062;-60
2024/01/02 15:14:44;;;;;;;3.13;1.20;;;;;;;11.60;100.00;97996.16;8391588;28;20040;-59
2024/01/02 15:19:23;;;;;;;3.78;1.40;;;;;;;11.63;100.00;97984.97;8391643;28;20152;-59
2024/01/02 15:23:53;;;;;;;1.23;0.40;;;;;;;11.62;100.00;97980.56;8392472;28;20032;-60
2024/01/02 15:28:10;;;;;;;3.20;1.50;;;;;;;11.61;100.00;97975.34;8407238;28;20066;-59
2024/01/02 15:32:13;;;;;;;2.88;2.20;;;;;;;11.65;100.00;97955.78;8413816;27;20430;-60
2024/01/02 15:36:21;;;;;;;3.22;2.20;;;;;;;11.62;100.00;97950.81;8401587;27;20128;-60
2024/01/02 15:40:26;;;;;;;4.25;2.78;;;;;;;11.59;100.00;97951.19;8373490;28;20040;-60
2024/01/02 15:44:54;;;;;;;2.30;1.40;;;;;;;11.58;100.00;97916.22;8366352;28;20033;-60
2024/01/02 15:49:24;;;;;;;0.60;0.47;;;;;;;11.66;100.00;97905.22;8392841;28;20044;-60
2024/01/02 15:53:35;;;;;;;0.47;0.28;;;;;;;11.66;100.00;97881.72;8385317;28;20044;-60
2024/01/02 15:57:40;;;;;;;3.47;0.90;;;;;;;11.70;100.00;97893.78;8394913;28;20521;-60
2024/01/02 16:01:57;;;;;;;1.08;0.68;;;;;;;11.71;100.00;97875.63;8389295;28;20463;-60
2024/01/02 16:06:37;;;;;;;0.50;0.50;;;;;;;11.78;100.00;97863.75;8380345;28;20492;-61
2024/01/02 16:10:59;;;;;;;0.60;0.50;;;;;;;11.71;100.00;97857.53;8376020;28;20063;-61
2024/01/02 16:15:29;;;;;;;0.40;0.40;;;;;;;11.69;100.00;97858.81;8387838;28;20033;-62
2024/01/02 16:20:02;;;;;;;0.30;0.28;;;;;;;11.79;100.00;97860.03;8389999;28;20044;-62
2024/01/02 16:24:43;;;;;;;0.30;0.20;;;;;;;11.76;100.00;97852.31;8381438;28;20051;-62
2024/01/02 16:29:24;;;;;;;0.90;0.40;;;;;;;11.83;100.00;97828.75;8374842;28;20017;-62
2024/01/02 16:33:49;;;;;;;1.50;0.20;;;;;;;11.91;100.00;97814.16;8379664;28;20052;-62
2024/01/02 16:38:06;;;;;;;2.42;0.70;;;;;;;11.88;100.00;97804.59;8382463;28;20044;-62
2024/01/02 16:42:08;;;;;;;0.57;0.50;;;;;;;11.87;100.00;97808.34;8374734;28;20013;-62
2024/01/02 16:46:09;;;;;;;0.10;0.10;;;;;;;11.87;100.00;97807.53;8398041;28;20047;-62
2024/01/02 16:50:10;;;;;;;0.20;0.10;;;;;;;11.92;100.00;97799.56;8404189;28;20499;-62
2024/01/02 16:54:11;;;;;;;0.40;0.20;;;;;;;11.92;100.00;97793.34;8407963;28;20630;-62
2024/01/02 16:58:16;;;;;;;0.20;0.20;;;;;;;12.03;100.00;97779.09;8361518;28;20517;-62
2024/01/02 17:02:18;;;;;;;0.15;0.10;;;;;;;12.06;100.00;97784.09;8371601;28;20042;-60
2024/01/02 17:06:21;;;;;;;0.52;0.10;;;;;;;12.02;100.00;97783.72;8376511;28;20534;-60
2024/01/02 17:10:22;;;;;;;0.13;0.10;;;;;;;12.10;100.00;97767.19;8374964;28;20033;-60
2024/01/02 17:14:23;;;;;;;0.08;0.08;;;;;;;12.11;100.00;97776.16;8368282;28;20032;-60
2024/01/02 17:18:26;;;;;;;0.10;0.10;;;;;;;12.13;100.00;97766.75;8374010;28;20402;-61
2024/01/02 17:22:26;;;;;;;0.10;0.10;;;;;;;12.25;100.00;97748.78;8373955;28;20032;-60
2024/01/02 17:26:30;;;;;;;0.43;0.10;;;;;;;12.27;100.00;97751.25;8377916;28;20040;-60
2024/01/02 17:30:32;;;;;;;0.13;0.10;;;;;;;12.31;100.00;97744.34;8378062;28;20032;-60
2024/01/02 17:34:34;;;;;;;0.10;0.10;;;;;;;12.35;100.00;97759.94;8372989;28;20063;-61
2024/01/02 17:38:36;;;;;;;0.55;0.20;;;;;;;12.39;100.00;97738.69;8375090;28;20037;-60
2024/01/02 17:42:36;;;;;;;0.20;0.10;;;;;;;12.46;100.00;97753.00;8373320;28;20337;-60
2024/01/02 17:46:37;;;;;;;0.90;0.10;;;;;;;12.58;100.00;97756.66;8368599;28;20098;-61
2024/01/02 17:50:38;;;;;;;0.25;0.10;;;;;;;12.73;100.00;97765.28;8374533;28;20521;-60
2024/01/02 17:54:40;;;;;;;0.20;0.10;;;;;;;12.83;100.00;97762.91;8383687;28;20388;-61
2024/01/02 17:59:08;;;;;;;0.10;0.10;;;;;;;12.82;100.00;97780.22;8370523;28;20039;-62
2024/01/02 18:03:36;;;;;;;0.10;0.10;;;;;;;12.85;100.00;97788.75;8366821;28;20056;-61
2024/01/02 18:08:09;;;;;;;0.10;0.10;;;;;;;12.75;100.00;97766.72;8366781;28;20072;-61
2024/01/02 18:16:45;;;;;;;0.10;0.10;;;;;;;12.71;100.00;97768.22;8330730;27;20382;-61
2024/01/02 18:25:26;;;;;;;0.32;0.10;;;;;;;12.80;100.00;97763.34;8386863;27;20894;-60
2024/01/02 18:29:54;;;;;;;0.35;0.20;;;;;;;12.89;100.00;97753.88;8371171;28;20041;-60
2024/01/02 18:42:50;;;;;;;1.08;0.17;;;;;;;13.15;100.00;97753.69;8411175;27;20405;-59
2024/01/02 18:47:00;;;;;;;0.20;0.20;;;;;;;13.14;100.00;97746.56;8368647;28;20048;-59
2024/01/02 18:51:13;;;;;;;0.17;0.10;;;;;;;13.45;96.75;97768.19;8386788;28;20040;-59
2024/01/02 18:55:14;;;;;;;0.15;0.15;;;;;;;13.61;95.68;97773.00;8385567;28;20051;-60
2024/01/02 18:59:14;;;;;;;0.20;0.10;;;;;;;13.73;94.36;97772.00;8388866;28;20055;-59
2024/01/02 19:03:21;;;;;;;0.52;0.20;;;;;;;13.92;92.02;97786.41;8392676;28;20135;-60
2024/01/02 19:07:23;;;;;;;0.10;0.10;;;;;;;13.94;92.17;97776.13;8359127;28;20036;-60
2024/01/02 19:11:24;;;;;;;0.30;0.20;;;;;;;13.88;92.12;97777.06;8378649;28;20044;-60
2024/01/02 19:15:25;;;;;;;0.82;0.20;;;;;;;13.87;91.42;97780.81;8381776;28;20044;-61
2024/01/02 19:19:35;;;;;;;0.60;0.40;;;;;;;13.84;91.47;97792.13;8380084;28;20051;-61
2024/01/02 19:23:38;;;;;;;0.10;0.10;;;;;;;13.78;92.73;97814.75;8366414;28;20504;-62
2024/01/02 19:27:40;;;;;;;1.77;0.32;;;;;;;13.74;93.51;97806.25;8369388;27;20048;-62
2024/01/02 19:31:40;;;;;;;1.77;0.40;;;;;;;13.64;95.51;97810.53;8363572;28;20037;-62
2024/01/02 19:35:40;;;;;;;1.15;0.40;;;;;;;13.66;94.37;97832.84;8366788;28;20033;-62
2024/01/02 19:39:41;;;;;;;1.85;0.30;;;;;;;13.67;94.67;97820.97;8370993;27;20325;-62
2024/01/02 19:43:43;;;;;;;1.73;0.13;;;;;;;13.61;94.64;97830.00;8369532;28;20044;-62
2024/01/02 19:47:47;;;;;;;3.38;0.50;;;;;;;13.71;93.99;97824.88;8368366;28;20049;-61
2024/01/02 19:51:49;;;;;;;1.60;0.53;;;;;;;13.69;95.62;97840.53;8360165;28;20044;-61
2024/01/02 19:55:50;;;;;;;4.85;0.55;;;;;;;13.36;100.00;97835.47;8345169;28;20040;-62
2024/01/02 19:59:50;;;;;;;1.75;0.40;;;;;;;12.97;100.00;97849.34;8340611;28;20557;-61
2024/01/02 20:03:51;;;;;;;2.58;0.60;;;;;;;12.71;100.00;97838.69;8339873;28;20585;-60